Wetterdaten: Woche 18.01.21 - 24.01.21 (KW3)
Datum Zeit Temp. Aussen Temp. o. S. Temp +5cm Feuchte Auss Luftdruck Regen Sonnenschein Regendauer Solar Windben Empfang
18.01.2021 00:00 4,0 C 3,3 C 2,8 C 100 % 1023,9 hPa 0,0 l/m 0,00 h 0,00 h 0 W/m 0,7 km/h (0 Bft) 95,94 %
18.01.2021 01:00 4,0 C 3,3 C 2,8 C 100 % 1024,0 hPa 0,0 l/m 0,00 h 0,13 h 0 W/m 0,9 km/h (0 Bft) 94,73 %
18.01.2021 02:00 3,9 C 3,3 C 2,8 C 99 % 1023,7 hPa 0,0 l/m 0,00 h 0,03 h 0 W/m 1,0 km/h (0 Bft) 96,47 %
18.01.2021 03:00 3,8 C 3,3 C 2,5 C 99 % 1023,6 hPa 0,0 l/m 0,00 h 0,00 h 0 W/m 0,5 km/h (0 Bft) 99,00 %
18.01.2021 04:00 3,5 C 2,9 C 2,3 C 99 % 1023,6 hPa 0,0 l/m 0,00 h 0,00 h 0 W/m 0,3 km/h (0 Bft) 95,69 %
18.01.2021 05:00 3,5 C 2,8 C 2,3 C 99 % 1023,5 hPa 0,0 l/m 0,00 h 0,00 h 0 W/m 1,6 km/h (1 Bft) 99,01 %
18.01.2021 06:00 3,5 C 2,8 C 2,3 C 99 % 1023,4 hPa 0,0 l/m 0,00 h 0,00 h 0 W/m 0,8 km/h (0 Bft) 97,65 %
18.01.2021 07:00 3,5 C 2,9 C 2,3 C 98 % 1023,6 hPa 0,0 l/m 0,00 h 0,00 h 0 W/m 1,1 km/h (1 Bft) 96,20 %
18.01.2021 08:00 3,5 C 2,9 C 2,4 C 98 % 1023,5 hPa 0,0 l/m 0,00 h 0,00 h 7 W/m 0,9 km/h (0 Bft) 98,12 %
18.01.2021 09:00 3,7 C 3,3 C 2,9 C 98 % 1023,5 hPa 0,0 l/m 0,00 h 0,00 h 24 W/m 1,7 km/h (1 Bft) 97,79 %
18.01.2021 10:00 4,0 C 3,7 C 3,4 C 97 % 1023,6 hPa 0,0 l/m 0,00 h 0,00 h 51 W/m 1,7 km/h (1 Bft) 97,38 %
18.01.2021 11:00 4,2 C 4,9 C 3,8 C 96 % 1023,4 hPa 0,0 l/m 0,23 h 0,00 h 122 W/m 1,5 km/h (1 Bft) 99,57 %
18.01.2021 12:00 5,3 C 5,7 C 5,3 C 92 % 1022,5 hPa 0,0 l/m 0,37 h 0,00 h 154 W/m 9,1 km/h (2 Bft) 94,73 %
18.01.2021 13:00 5,9 C 5,9 C 5,0 C 89 % 1022,0 hPa 0,0 l/m 0,00 h 0,00 h 122 W/m 5,8 km/h (2 Bft) 96,08 %
18.01.2021 14:00 6,2 C 6,2 C 5,0 C 87 % 1021,6 hPa 0,2 l/m 0,33 h 0,00 h 128 W/m 4,8 km/h (1 Bft) 99,72 %
18.01.2021 15:00 6,3 C 5,5 C 3,8 C 87 % 1021,3 hPa 0,0 l/m 0,00 h 0,23 h 48 W/m 6,2 km/h (2 Bft) 97,01 %
18.01.2021 16:00 5,7 C 4,9 C 2,8 C 90 % 1021,0 hPa 0,0 l/m 0,00 h 0,17 h 8 W/m 3,6 km/h (1 Bft) 97,88 %
18.01.2021 17:00 5,5 C 5,0 C 3,1 C 91 % 1020,7 hPa 0,0 l/m 0,00 h 0,00 h 0 W/m 4,3 km/h (1 Bft) 97,63 %
18.01.2021 18:00 5,4 C 4,7 C 2,9 C 92 % 1020,7 hPa 0,0 l/m 0,00 h 0,07 h 0 W/m 4,2 km/h (1 Bft) 95,56 %
18.01.2021 19:00 5,2 C 4,4 C 2,7 C 93 % 1020,7 hPa 0,0 l/m 0,00 h 0,35 h 0 W/m 8,9 km/h (2 Bft) 98,97 %
18.01.2021 20:00 5,1 C 4,3 C 2,8 C 94 % 1020,5 hPa 0,0 l/m 0,00 h 0,17 h 0 W/m 6,7 km/h (2 Bft) 99,00 %
18.01.2021 21:00 4,9 C 4,2 C 2,5 C 94 % 1019,9 hPa 0,0 l/m 0,00 h 0,10 h 0 W/m 4,1 km/h (1 Bft) 96,58 %
18.01.2021 22:00 5,0 C 4,4 C 3,0 C 94 % 1019,6 hPa 0,0 l/m 0,00 h 0,07 h 0 W/m 7,4 km/h (2 Bft) 98,36 %
18.01.2021 23:00 5,1 C 4,1 C 2,9 C 94 % 1019,2 hPa 0,2 l/m 0,00 h 0,70 h 0 W/m 7,7 km/h (2 Bft) 96,30 %
19.01.2021 00:00 5,0 C 3,9 C 2,6 C 95 % 1018,6 hPa 0,2 l/m 0,00 h 0,37 h 0 W/m 4,3 km/h (1 Bft) 95,49 %
19.01.2021 01:00 5,1 C 4,4 C 2,8 C 93 % 1017,7 hPa 0,0 l/m 0,00 h 0,00 h 0 W/m 10,0 km/h (2 Bft) 97,91 %
19.01.2021 02:00 5,2 C 4,7 C 2,4 C 89 % 1017,0 hPa 0,0 l/m 0,00 h 0,00 h 0 W/m 5,5 km/h (1 Bft) 97,79 %
19.01.2021 03:00 5,0 C 4,4 C 2,0 C 86 % 1015,8 hPa 0,0 l/m 0,00 h 0,00 h 0 W/m 6,4 km/h (2 Bft) 96,22 %
19.01.2021 04:00 4,6 C 3,9 C 1,8 C 87 % 1014,3 hPa 0,0 l/m 0,00 h 0,00 h 0 W/m 5,1 km/h (1 Bft) 99,47 %
19.01.2021 05:00 4,5 C 3,4 C 1,6 C 90 % 1012,9 hPa 0,0 l/m 0,00 h 0,47 h 0 W/m 2,0 km/h (1 Bft) 94,94 %
19.01.2021 06:00 4,7 C 3,5 C 1,8 C 93 % 1011,6 hPa 0,6 l/m 0,00 h 0,97 h 0 W/m 3,7 km/h (1 Bft) 97,42 %
19.01.2021 07:00 5,2 C 3,9 C 2,4 C 95 % 1010,1 hPa 0,8 l/m 0,00 h 0,97 h 0 W/m 9,7 km/h (2 Bft) 99,43 %
19.01.2021 08:00 5,3 C 3,9 C 2,8 C 95 % 1008,9 hPa 1,6 l/m 0,00 h 1,00 h 0 W/m 16,6 km/h (3 Bft) 95,73 %
19.01.2021 09:00 5,3 C 4,1 C 2,9 C 96 % 1007,9 hPa 1,4 l/m 0,00 h 1,00 h 7 W/m 16,4 km/h (3 Bft) 98,16 %
19.01.2021 10:00 5,6 C 4,4 C 3,4 C 96 % 1007,2 hPa 1,0 l/m 0,00 h 1,00 h 20 W/m 22,1 km/h (4 Bft) 96,38 %
19.01.2021 11:00 6,1 C 5,0 C 3,9 C 96 % 1006,9 hPa 0,4 l/m 0,00 h 1,00 h 34 W/m 26,6 km/h (4 Bft) 97,15 %
19.01.2021 12:00 6,5 C 5,7 C 4,7 C 97 % 1006,9 hPa 0,2 l/m 0,00 h 0,60 h 30 W/m 20,5 km/h (4 Bft) 96,72 %
19.01.2021 13:00 7,2 C 6,4 C 5,4 C 97 % 1006,7 hPa 0,0 l/m 0,00 h 0,00 h 29 W/m 21,6 km/h (4 Bft) 95,53 %
19.01.2021 14:00 7,8 C 7,2 C 5,9 C 96 % 1006,6 hPa 0,0 l/m 0,00 h 0,00 h 32 W/m 17,9 km/h (3 Bft) 95,51 %
19.01.2021 15:00 8,1 C 7,5 C 6,2 C 96 % 1007,1 hPa 0,0 l/m 0,00 h 0,00 h 15 W/m 16,2 km/h (3 Bft) 99,00 %
19.01.2021 16:00 7,9 C 7,2 C 6,2 C 96 % 1007,4 hPa 0,0 l/m 0,00 h 0,00 h 5 W/m 16,0 km/h (3 Bft) 97,79 %
19.01.2021 17:00 7,8 C 7,1 C 6,2 C 96 % 1007,8 hPa 0,0 l/m 0,00 h 0,00 h 0 W/m 16,8 km/h (3 Bft) 97,94 %
19.01.2021 18:00 7,3 C 6,4 C 5,5 C 96 % 1008,2 hPa 0,0 l/m 0,00 h 0,03 h 0 W/m 15,9 km/h (3 Bft) 99,36 %
19.01.2021 19:00 6,6 C 5,7 C 4,9 C 96 % 1008,5 hPa 0,0 l/m 0,00 h 0,00 h 0 W/m 8,9 km/h (2 Bft) 97,80 %
19.01.2021 20:00 6,0 C 5,6 C 4,6 C 95 % 1008,3 hPa 0,0 l/m 0,00 h 0,00 h 0 W/m 11,4 km/h (2 Bft) 97,93 %
19.01.2021 21:00 6,0 C 5,6 C 4,5 C 93 % 1008,2 hPa 0,0 l/m 0,00 h 0,00 h 0 W/m 8,0 km/h (2 Bft) 96,79 %
19.01.2021 22:00 6,1 C 5,6 C 4,5 C 91 % 1007,7 hPa 0,0 l/m 0,00 h 0,00 h 0 W/m 2,4 km/h (1 Bft) 95,73 %
19.01.2021 23:00 6,2 C 5,6 C 4,3 C 90 % 1006,6 hPa 0,0 l/m 0,00 h 0,00 h 0 W/m 3,2 km/h (1 Bft) 95,98 %
20.01.2021 00:00 6,3 C 5,7 C 3,9 C 87 % 1006,1 hPa 0,0 l/m 0,00 h 0,00 h 0 W/m 3,2 km/h (1 Bft) 98,25 %
20.01.2021 01:00 6,4 C 6,1 C 3,8 C 83 % 1005,2 hPa 0,0 l/m 0,00 h 0,00 h 0 W/m 6,4 km/h (2 Bft) 97,94 %
20.01.2021 02:00 6,6 C 6,3 C 3,7 C 83 % 1004,4 hPa 0,0 l/m 0,00 h 0,00 h 0 W/m 7,1 km/h (2 Bft) 98,37 %
20.01.2021 03:00 7,0 C 6,4 C 3,8 C 82 % 1004,1 hPa 0,0 l/m 0,00 h 0,00 h 0 W/m 3,9 km/h (1 Bft) 96,01 %
20.01.2021 04:00 7,1 C 6,9 C 4,3 C 84 % 1003,6 hPa 0,0 l/m 0,00 h 0,00 h 0 W/m 2,7 km/h (1 Bft) 97,39 %
20.01.2021 05:00 8,4 C 7,9 C 5,0 C 78 % 1002,7 hPa 0,0 l/m 0,00 h 0,00 h 0 W/m 3,7 km/h (1 Bft) 99,42 %
20.01.2021 06:00 8,1 C 7,5 C 4,5 C 76 % 1002,1 hPa 0,0 l/m 0,00 h 0,00 h 0 W/m 2,4 km/h (1 Bft) 97,38 %
20.01.2021 07:00 8,4 C 7,8 C 4,8 C 77 % 1001,8 hPa 0,0 l/m 0,00 h 0,00 h 0 W/m 2,7 km/h (1 Bft) 95,37 %
20.01.2021 08:00 8,1 C 7,2 C 4,2 C 81 % 1001,6 hPa 0,0 l/m 0,00 h 0,00 h 5 W/m 2,8 km/h (1 Bft) 98,94 %
20.01.2021 09:00 8,2 C 7,8 C 4,8 C 80 % 1001,5 hPa 0,0 l/m 0,00 h 0,00 h 22 W/m 5,5 km/h (1 Bft) 97,22 %
20.01.2021 10:00 8,4 C 8,0 C 5,0 C 77 % 1001,2 hPa 0,0 l/m 0,00 h 0,00 h 63 W/m 1,3 km/h (1 Bft) 96,79 %
20.01.2021 11:00 8,3 C 9,7 C 5,3 C 76 % 1000,8 hPa 0,0 l/m 0,43 h 0,00 h 156 W/m 0,1 km/h (0 Bft) 97,71 %
20.01.2021 12:00 9,2 C 9,3 C 6,3 C 71 % 1000,2 hPa 0,0 l/m 0,07 h 0,00 h 87 W/m 2,0 km/h (1 Bft) 96,06 %
20.01.2021 13:00 9,7 C 9,4 C 6,1 C 68 % 999,4 hPa 0,0 l/m 0,00 h 0,00 h 91 W/m 4,3 km/h (1 Bft) 98,65 %
20.01.2021 14:00 9,7 C 9,2 C 5,5 C 69 % 998,5 hPa 0,0 l/m 0,00 h 0,00 h 51 W/m 2,6 km/h (1 Bft) 97,05 %
20.01.2021 15:00 9,0 C 8,3 C 4,8 C 73 % 997,8 hPa 0,0 l/m 0,00 h 0,00 h 28 W/m 1,3 km/h (1 Bft) 96,81 %
20.01.2021 16:00 8,4 C 7,8 C 4,1 C 76 % 997,4 hPa 0,0 l/m 0,00 h 0,00 h 13 W/m 2,2 km/h (1 Bft) 99,01 %
20.01.2021 17:00 8,4 C 7,8 C 4,2 C 77 % 996,9 hPa 0,0 l/m 0,00 h 0,00 h 0 W/m 2,8 km/h (1 Bft) 97,59 %
20.01.2021 18:00 8,7 C 7,9 C 4,5 C 79 % 996,4 hPa 0,0 l/m 0,00 h 0,00 h 0 W/m 2,9 km/h (1 Bft) 93,67 %
20.01.2021 19:00 8,9 C 8,3 C 4,9 C 80 % 996,2 hPa 0,0 l/m 0,00 h 0,00 h 0 W/m 2,8 km/h (1 Bft) 99,73 %
20.01.2021 20:00 9,1 C 8,5 C 5,2 C 82 % 995,6 hPa 0,0 l/m 0,00 h 0,00 h 0 W/m 3,1 km/h (1 Bft) 96,10 %
20.01.2021 21:00 9,2 C 8,4 C 5,4 C 82 % 994,8 hPa 0,0 l/m 0,00 h 0,00 h 0 W/m 1,1 km/h (0 Bft) 96,59 %
20.01.2021 22:00 9,7 C 9,3 C 6,1 C 80 % 994,2 hPa 0,0 l/m 0,00 h 0,00 h 0 W/m 2,0 km/h (1 Bft) 98,29 %
20.01.2021 23:00 10,0 C 9,4 C 6,2 C 79 % 993,5 hPa 0,0 l/m 0,00 h 0,00 h 0 W/m 2,4 km/h (1 Bft) 96,63 %
21.01.2021 00:00 10,3 C 9,6 C 6,2 C 78 % 992,5 hPa 0,0 l/m 0,00 h 0,00 h 0 W/m 2,7 km/h (1 Bft) 95,24 %
21.01.2021 01:00 10,2 C 9,4 C 6,2 C 78 % 991,2 hPa 0,0 l/m 0,00 h 0,00 h 0 W/m 2,8 km/h (1 Bft) 97,44 %
21.01.2021 02:00 10,3 C 9,4 C 6,2 C 77 % 989,6 hPa 0,0 l/m 0,00 h 0,00 h 0 W/m 3,6 km/h (1 Bft) 96,58 %
21.01.2021 03:00 10,9 C 10,4 C 6,9 C 74 % 988,5 hPa 0,0 l/m 0,00 h 0,00 h 0 W/m 7,6 km/h (2 Bft) 99,00 %
21.01.2021 04:00 11,9 C 11,4 C 7,6 C 72 % 987,8 hPa 0,0 l/m 0,00 h 0,03 h 0 W/m 17,5 km/h (3 Bft) 98,16 %
21.01.2021 05:00 11,8 C 11,0 C 7,3 C 74 % 987,6 hPa 0,0 l/m 0,00 h 0,10 h 0 W/m 21,2 km/h (4 Bft) 95,46 %
21.01.2021 06:00 8,1 C 5,5 C 2,6 C 85 % 990,2 hPa 2,6 l/m 0,00 h 1,00 h 0 W/m 16,5 km/h (3 Bft) 98,97 %
21.01.2021 07:00 5,8 C 4,4 C 2,3 C 91 % 991,8 hPa 0,0 l/m 0,00 h 1,00 h 0 W/m 21,1 km/h (4 Bft) 98,29 %
21.01.2021 08:00 5,8 C 5,0 C 2,3 C 91 % 993,0 hPa 0,0 l/m 0,00 h 0,10 h 6 W/m 12,0 km/h (2 Bft) 97,08 %
21.01.2021 09:00 5,7 C 5,3 C 2,3 C 89 % 993,8 hPa 0,0 l/m 0,00 h 0,00 h 16 W/m 9,8 km/h (2 Bft) 98,64 %
21.01.2021 10:00 6,4 C 6,4 C 3,0 C 87 % 994,4 hPa 0,0 l/m 0,00 h 0,00 h 69 W/m 11,6 km/h (2 Bft) 95,44 %
21.01.2021 11:00 7,3 C 7,1 C 4,4 C 83 % 994,8 hPa 0,0 l/m 0,00 h 0,00 h 107 W/m 15,8 km/h (3 Bft) 98,12 %
21.01.2021 12:00 7,7 C 7,4 C 4,7 C 80 % 994,8 hPa 0,0 l/m 0,00 h 0,00 h 112 W/m 17,5 km/h (3 Bft) 99,48 %
21.01.2021 13:00 8,0 C 7,8 C 5,0 C 78 % 994,3 hPa 0,0 l/m 0,00 h 0,00 h 127 W/m 19,6 km/h (3 Bft) 94,95 %
21.01.2021 14:00 8,3 C 7,8 C 4,8 C 77 % 993,9 hPa 0,2 l/m 0,00 h 0,00 h 90 W/m 11,5 km/h (2 Bft) 98,44 %
21.01.2021 15:00 8,5 C 8,5 C 5,4 C 76 % 993,8 hPa 0,0 l/m 0,50 h 0,00 h 99 W/m 12,1 km/h (2 Bft) 99,14 %
21.01.2021 16:00 8,2 C 7,7 C 4,0 C 76 % 993,6 hPa 0,0 l/m 0,00 h 0,00 h 24 W/m 11,5 km/h (2 Bft) 94,57 %
21.01.2021 17:00 8,0 C 7,2 C 3,6 C 78 % 993,0 hPa 0,0 l/m 0,00 h 0,00 h 0 W/m 4,4 km/h (1 Bft) 97,31 %
21.01.2021 18:00 7,9 C 7,2 C 3,6 C 79 % 992,2 hPa 0,0 l/m 0,00 h 0,10 h 0 W/m 3,1 km/h (1 Bft) 98,65 %
21.01.2021 19:00 7,5 C 5,2 C 2,2 C 85 % 990,7 hPa 1,2 l/m 0,00 h 1,00 h 0 W/m 1,8 km/h (1 Bft) 96,50 %
21.01.2021 20:00 6,4 C 5,0 C 2,5 C 93 % 988,6 hPa 1,6 l/m 0,00 h 1,00 h 0 W/m 2,1 km/h (1 Bft) 99,65 %
21.01.2021 21:00 6,5 C 5,5 C 3,3 C 96 % 986,6 hPa 0,6 l/m 0,00 h 0,57 h 0 W/m 4,1 km/h (1 Bft) 95,37 %
21.01.2021 22:00 7,4 C 6,7 C 4,5 C 96 % 985,2 hPa 0,0 l/m 0,00 h 0,63 h 0 W/m 7,0 km/h (2 Bft) 95,10 %
21.01.2021 23:00 9,6 C 8,2 C 6,1 C 90 % 985,0 hPa 0,2 l/m 0,00 h 0,60 h 0 W/m 14,9 km/h (3 Bft) 99,64 %
22.01.2021 00:00 10,1 C 8,7 C 6,1 C 86 % 984,8 hPa 0,2 l/m 0,00 h 0,17 h 0 W/m 12,9 km/h (3 Bft) 97,25 %
22.01.2021 01:00 9,5 C 7,4 C 5,6 C 90 % 984,2 hPa 1,0 l/m 0,00 h 0,97 h 0 W/m 8,3 km/h (2 Bft) 98,07 %
22.01.2021 02:00 8,8 C 6,7 C 4,9 C 90 % 984,6 hPa 1,0 l/m 0,00 h 1,00 h 0 W/m 14,8 km/h (3 Bft) 96,86 %
22.01.2021 03:00 4,8 C 3,3 C 2,0 C 93 % 987,7 hPa 0,4 l/m 0,00 h 0,87 h 0 W/m 16,8 km/h (3 Bft) 94,85 %
22.01.2021 04:00 3,6 C 2,8 C 1,7 C 95 % 989,2 hPa 0,0 l/m 0,00 h 0,00 h 0 W/m 1,4 km/h (1 Bft) 97,59 %
22.01.2021 05:00 3,5 C 2,8 C 1,7 C 96 % 990,2 hPa 0,0 l/m 0,00 h 0,00 h 0 W/m 0,0 km/h (0 Bft) 97,86 %
22.01.2021 06:00 3,7 C 3,3 C 1,8 C 96 % 990,6 hPa 0,0 l/m 0,00 h 0,00 h 0 W/m 0,2 km/h (0 Bft) 97,41 %
22.01.2021 07:00 4,0 C 3,6 C 2,3 C 96 % 990,9 hPa 0,0 l/m 0,00 h 0,00 h 0 W/m 0,5 km/h (0 Bft) 96,63 %
22.01.2021 08:00 4,2 C 4,0 C 2,4 C 95 % 991,6 hPa 0,0 l/m 0,00 h 0,00 h 8 W/m 0,9 km/h (0 Bft) 98,23 %
22.01.2021 09:00 4,5 C 4,2 C 3,0 C 95 % 992,3 hPa 0,0 l/m 0,00 h 0,00 h 36 W/m 0,8 km/h (0 Bft) 97,87 %
22.01.2021 10:00 4,9 C 4,8 C 3,7 C 93 % 992,9 hPa 0,0 l/m 0,00 h 0,00 h 78 W/m 1,3 km/h (1 Bft) 92,60 %
22.01.2021 11:00 5,5 C 5,4 C 4,4 C 92 % 993,7 hPa 0,0 l/m 0,00 h 0,00 h 104 W/m 4,1 km/h (1 Bft) 97,79 %
22.01.2021 12:00 6,0 C 6,6 C 5,6 C 90 % 994,2 hPa 0,0 l/m 0,23 h 0,00 h 158 W/m 2,4 km/h (1 Bft) 97,83 %
22.01.2021 13:00 7,0 C 9,8 C 9,4 C 85 % 994,5 hPa 0,0 l/m 0,87 h 0,00 h 328 W/m 2,2 km/h (1 Bft) 97,95 %
22.01.2021 14:00 8,0 C 10,3 C 9,1 C 78 % 994,9 hPa 0,0 l/m 1,00 h 0,00 h 277 W/m 6,3 km/h (2 Bft) 95,38 %
22.01.2021 15:00 8,0 C 9,6 C 8,0 C 76 % 995,3 hPa 0,0 l/m 1,00 h 0,00 h 185 W/m 4,4 km/h (1 Bft) 99,00 %
22.01.2021 16:00 7,5 C 6,9 C 3,3 C 76 % 995,5 hPa 0,0 l/m 0,47 h 0,00 h 48 W/m 1,1 km/h (0 Bft) 96,23 %
22.01.2021 17:00 6,2 C 4,6 C 1,5 C 79 % 995,7 hPa 0,0 l/m 0,00 h 0,00 h 4 W/m 0,1 km/h (0 Bft) 95,59 %
22.01.2021 18:00 4,8 C 3,3 C 0,3 C 81 % 996,2 hPa 0,0 l/m 0,00 h 0,00 h 0 W/m 0,0 km/h (0 Bft) 99,41 %
22.01.2021 19:00 3,5 C 2,2 C -0,5 C 85 % 996,6 hPa 0,0 l/m 0,00 h 0,00 h 0 W/m 0,0 km/h (0 Bft) 98,35 %
22.01.2021 20:00 3,3 C 2,9 C 0,6 C 88 % 997,0 hPa 0,0 l/m 0,00 h 0,00 h 0 W/m 0,0 km/h (0 Bft) 98,17 %
22.01.2021 21:00 3,1 C 2,2 C 0,4 C 88 % 997,4 hPa 0,0 l/m 0,00 h 0,00 h 0 W/m 0,3 km/h (0 Bft) 97,86 %
22.01.2021 22:00 2,5 C 1,8 C 0,0 C 90 % 997,6 hPa 0,0 l/m 0,00 h 0,00 h 0 W/m 0,0 km/h (0 Bft) 95,52 %
22.01.2021 23:00 2,2 C 1,3 C -0,3 C 90 % 997,6 hPa 0,0 l/m 0,00 h 0,00 h 0 W/m 0,0 km/h (0 Bft) 95,50 %
23.01.2021 00:00 1,6 C 1,0 C -0,5 C 92 % 997,5 hPa 0,0 l/m 0,00 h 0,00 h 0 W/m 0,0 km/h (0 Bft) 98,05 %
23.01.2021 01:00 1,4 C 0,8 C -0,5 C 93 % 997,5 hPa 0,0 l/m 0,00 h 0,00 h 0 W/m 0,0 km/h (0 Bft) 99,49 %
23.01.2021 02:00 1,4 C 0,9 C -0,5 C 93 % 997,5 hPa 0,0 l/m 0,00 h 0,00 h 0 W/m 0,2 km/h (0 Bft) 96,65 %
23.01.2021 03:00 1,2 C 0,6 C -0,5 C 93 % 997,5 hPa 0,0 l/m 0,00 h 0,00 h 0 W/m 0,7 km/h (0 Bft) 98,63 %
23.01.2021 04:00 1,4 C 0,9 C -0,4 C 94 % 997,3 hPa 0,0 l/m 0,00 h 0,00 h 0 W/m 0,3 km/h (0 Bft) 96,58 %
23.01.2021 05:00 1,0 C 0,5 C -0,7 C 94 % 996,9 hPa 0,0 l/m 0,00 h 0,00 h 0 W/m 1,1 km/h (0 Bft) 95,88 %
23.01.2021 06:00 1,4 C 1,0 C -0,1 C 95 % 996,5 hPa 0,0 l/m 0,00 h 0,00 h 0 W/m 0,5 km/h (0 Bft) 94,92 %
23.01.2021 07:00 1,7 C 1,1 C 0,1 C 95 % 996,6 hPa 0,0 l/m 0,00 h 0,00 h 0 W/m 0,4 km/h (0 Bft) 97,93 %
23.01.2021 08:00 1,9 C 1,4 C 0,5 C 95 % 996,8 hPa 0,0 l/m 0,00 h 0,00 h 5 W/m 0,9 km/h (0 Bft) 97,58 %
23.01.2021 09:00 1,9 C 1,6 C 0,7 C 95 % 996,7 hPa 0,0 l/m 0,00 h 0,00 h 11 W/m 0,6 km/h (0 Bft) 97,58 %
23.01.2021 10:00 2,5 C 2,6 C 1,6 C 96 % 996,7 hPa 0,0 l/m 0,00 h 0,00 h 28 W/m 0,4 km/h (0 Bft) 99,36 %
23.01.2021 11:00 3,4 C 4,0 C 3,0 C 95 % 996,5 hPa 0,0 l/m 0,00 h 0,00 h 84 W/m 0,4 km/h (0 Bft) 97,05 %
23.01.2021 12:00 5,0 C 6,1 C 5,2 C 91 % 996,0 hPa 0,0 l/m 0,00 h 0,00 h 130 W/m 1,4 km/h (1 Bft) 96,62 %
23.01.2021 13:00 6,0 C 5,8 C 4,4 C 81 % 995,3 hPa 0,0 l/m 0,00 h 0,00 h 81 W/m 1,1 km/h (0 Bft) 96,46 %
23.01.2021 14:00 6,7 C 8,4 C 7,1 C 78 % 994,4 hPa 0,0 l/m 0,63 h 0,00 h 196 W/m 1,1 km/h (0 Bft) 98,34 %
23.01.2021 15:00 7,0 C 7,1 C 5,2 C 74 % 994,0 hPa 0,0 l/m 0,40 h 0,00 h 103 W/m 0,4 km/h (0 Bft) 96,48 %
23.01.2021 16:00 6,7 C 5,7 C 2,9 C 76 % 994,0 hPa 0,0 l/m 0,00 h 0,00 h 23 W/m 0,1 km/h (0 Bft) 96,80 %
23.01.2021 17:00 5,7 C 3,8 C 1,1 C 80 % 993,7 hPa 0,0 l/m 0,00 h 0,00 h 0 W/m 0,0 km/h (0 Bft) 99,09 %
23.01.2021 18:00 4,6 C 3,3 C 1,0 C 84 % 993,5 hPa 0,0 l/m 0,00 h 0,00 h 0 W/m 0,0 km/h (0 Bft) 98,10 %
23.01.2021 19:00 4,1 C 3,1 C 0,7 C 85 % 993,1 hPa 0,0 l/m 0,00 h 0,00 h 0 W/m 0,0 km/h (0 Bft) 97,67 %
23.01.2021 20:00 3,7 C 2,8 C 0,6 C 87 % 992,8 hPa 0,0 l/m 0,00 h 0,00 h 0 W/m 0,0 km/h (0 Bft) 98,08 %
23.01.2021 21:00 3,6 C 3,1 C 0,9 C 89 % 992,6 hPa 0,0 l/m 0,00 h 0,00 h 0 W/m 0,1 km/h (0 Bft) 96,87 %
23.01.2021 22:00 3,9 C 3,0 C 1,0 C 91 % 992,3 hPa 0,2 l/m 0,00 h 0,87 h 0 W/m 0,0 km/h (0 Bft) 95,37 %
23.01.2021 23:00 3,8 C 2,6 C 0,6 C 93 % 992,0 hPa 0,2 l/m 0,00 h 0,83 h 0 W/m 0,0 km/h (0 Bft) 98,06 %
24.01.2021 00:00 3,0 C 1,6 C -0,1 C 94 % 991,9 hPa 2,0 l/m 0,00 h 1,00 h 0 W/m 0,3 km/h (0 Bft) 98,86 %
24.01.2021 01:00 2,1 C 0,9 C -0,7 C 94 % 991,9 hPa 1,0 l/m 0,00 h 1,00 h 0 W/m 0,0 km/h (0 Bft) 96,36 %
24.01.2021 02:00 0,7 C -0,6 C -2,2 C 95 % 992,4 hPa 0,0 l/m 0,00 h 0,13 h 0 W/m 0,5 km/h (0 Bft) 99,57 %
24.01.2021 03:00 0,2 C -0,6 C -2,1 C 96 % 993,0 hPa 0,2 l/m 0,00 h 0,22 h 0 W/m 8,8 km/h (2 Bft) 96,04 %
24.01.2021 04:00 0,2 C -0,6 C -1,6 C 97 % 993,9 hPa 0,2 l/m 0,00 h 0,40 h 0 W/m 19,9 km/h (4 Bft) 92,66 %
24.01.2021 05:00 0,1 C -0,6 C -1,6 C 98 % 995,0 hPa 0,4 l/m 0,00 h 0,23 h 0 W/m 7,1 km/h (2 Bft) 98,22 %
24.01.2021 06:00 0,1 C -0,6 C -1,6 C 98 % 995,9 hPa 0,6 l/m 0,00 h 0,10 h 0 W/m 2,6 km/h (1 Bft) 97,79 %
24.01.2021 07:00 0,1 C -0,6 C -1,2 C 99 % 996,8 hPa 0,2 l/m 0,00 h 0,13 h 0 W/m 0,8 km/h (0 Bft) 97,45 %
24.01.2021 08:00 0,3 C -0,2 C -0,8 C 99 % 997,7 hPa 0,6 l/m 0,00 h 0,27 h 5 W/m 0,0 km/h (0 Bft) 96,12 %
24.01.2021 09:00 0,7 C 0,5 C -0,3 C 99 % 998,7 hPa 0,6 l/m 0,00 h 0,00 h 10 W/m 1,1 km/h (0 Bft) 97,72 %
24.01.2021 10:00 0,8 C 0,6 C 0,0 C 99 % 999,5 hPa 0,8 l/m 0,00 h 0,00 h 34 W/m 1,4 km/h (1 Bft) 96,41 %
24.01.2021 11:00 0,9 C 0,9 C 0,3 C 99 % 1000,2 hPa 1,0 l/m 0,00 h 0,00 h 93 W/m 1,1 km/h (0 Bft) 96,73 %
24.01.2021 12:00 1,2 C 1,6 C 1,0 C 99 % 1000,5 hPa 1,0 l/m 0,10 h 0,00 h 128 W/m 2,9 km/h (1 Bft) 96,50 %
24.01.2021 13:00 2,6 C 5,8 C 5,9 C 99 % 1000,3 hPa 2,2 l/m 1,00 h 0,00 h 344 W/m 0,7 km/h (0 Bft) 97,63 %
24.01.2021 14:00 3,5 C 7,0 C 6,3 C 98 % 1000,4 hPa 1,8 l/m 1,00 h 0,00 h 283 W/m 1,2 km/h (1 Bft) 98,33 %
24.01.2021 15:00 3,4 C 3,3 C 2,5 C 92 % 1000,5 hPa 0,6 l/m 0,10 h 0,00 h 72 W/m 0,1 km/h (0 Bft) 94,35 %
24.01.2021 16:00 2,3 C 1,7 C 0,6 C 91 % 1000,7 hPa 0,2 l/m 0,00 h 0,00 h 25 W/m 0,1 km/h (0 Bft) 97,43 %
24.01.2021 17:00 1,5 C 0,7 C -0,4 C 92 % 1000,7 hPa 0,0 l/m 0,00 h 0,00 h 5 W/m 0,0 km/h (0 Bft) 97,16 %
24.01.2021 18:00 0,7 C 0,0 C -1,1 C 92 % 1000,5 hPa 0,0 l/m 0,00 h 0,00 h 0 W/m 0,0 km/h (0 Bft) 96,12 %
24.01.2021 19:00 0,4 C -0,0 C -1,1 C 93 % 1000,3 hPa 0,0 l/m 0,00 h 0,00 h 0 W/m 0,4 km/h (0 Bft) 97,98 %
24.01.2021 20:00 0,2 C -0,5 C -1,2 C 93 % 999,9 hPa 0,0 l/m 0,00 h 0,00 h 0 W/m 0,1 km/h (0 Bft) 97,29 %
24.01.2021 21:00 0,0 C -0,3 C -1,2 C 93 % 999,6 hPa 0,0 l/m 0,00 h 0,00 h 0 W/m 0,2 km/h (0 Bft) 98,36 %
24.01.2021 22:00 0,1 C -0,4 C -1,1 C 92 % 999,3 hPa 0,0 l/m 0,00 h 0,00 h 0 W/m 0,0 km/h (0 Bft) 96,23 %
24.01.2021 23:00 0,5 C 0,0 C -0,5 C 93 % 999,0 hPa 0,0 l/m 0,00 h 0,00 h 0 W/m 0,3 km/h (0 Bft) 97,08 %
Min-Datum _ 24.01.21 24.01.21 24.01.21 20.01.21 22.01.21 - - - - 18.01.21 21.01.21
_ Min-Zeit 06:20 02:02 01:58 13:20 02:20 - - - - 00:00 00:02
Minimum _ 0,0 C -0,6 C -2,2 C 67 % 983,6 hPa - - - - 0,0 km/h (0 Bft) 12,50 %
Max-Datum _ 21.01.21 20.01.21 22.01.21 18.01.21 18.01.21 21.01.21 18.01.21 24.01.21 22.01.21 22.01.21 18.01.21
_ Max-Zeit 04:24 11:58 13:56 00:00 01:02 06:12 12:08 03:33 13:06 02:32 03:12
Maximum _ 12,0 C 12,8 C 12,3 C 100 % 1024,1 hPa 2,6 l/m 0,07 h 0,08 h 470 W/m 54,7 km/h
SO (7 Bft)
100,00 %
Durchschnitt _ 5,3 C 4,8 C 3,0 C 89 % 1001,3 hPa #29,4 l/m #8:44 h #23:52 h 76 W/m 5,0 km/h (1 Bft) 97,25 %
© 2021 W. Hausmann